createdAt,value
2023-05-10T00:02:11.729Z,11.20
2023-05-10T00:04:38.963Z,11.20
2023-05-10T00:07:05.789Z,11.20
2023-05-10T00:09:32.663Z,11.10
2023-05-10T00:11:59.942Z,11.10
2023-05-10T00:14:26.855Z,11.10
2023-05-10T00:16:53.937Z,11.00
2023-05-10T00:19:20.937Z,11.10
2023-05-10T00:21:48.174Z,11.10
2023-05-10T00:24:15.145Z,11.10
2023-05-10T00:26:43.346Z,11.10
2023-05-10T00:29:10.193Z,11.00
2023-05-10T00:31:36.991Z,11.00
2023-05-10T00:34:04.570Z,11.00
2023-05-10T00:36:32.264Z,10.90
2023-05-10T00:38:59.402Z,10.90
2023-05-10T00:41:26.497Z,10.90
2023-05-10T00:43:54.796Z,10.90
2023-05-10T00:46:22.554Z,10.90
2023-05-10T00:48:50.131Z,10.90
2023-05-10T00:51:17.192Z,10.90
2023-05-10T00:53:48.975Z,11.00
2023-05-10T00:56:16.905Z,11.00
2023-05-10T00:58:44.089Z,11.00
2023-05-10T01:01:11.765Z,11.00
2023-05-10T01:03:40.786Z,10.90
2023-05-10T01:06:07.899Z,10.90
2023-05-10T01:08:35.195Z,11.00
2023-05-10T01:11:05.287Z,10.90
2023-05-10T01:13:37.280Z,10.90
2023-05-10T01:16:05.059Z,10.90
2023-05-10T01:18:36.555Z,10.90
2023-05-10T01:21:26.692Z,10.90
2023-05-10T01:24:13.727Z,10.90
2023-05-10T01:27:17.574Z,10.90
2023-05-10T01:30:15.968Z,10.80
2023-05-10T01:32:57.267Z,10.70
2023-05-10T01:35:28.166Z,10.60
2023-05-10T01:38:14.013Z,10.50
2023-05-10T01:41:07.996Z,10.50
2023-05-10T01:43:44.042Z,10.50
2023-05-10T01:46:18.582Z,10.40
2023-05-10T01:48:58.546Z,10.40
2023-05-10T01:51:28.463Z,10.40
2023-05-10T01:54:01.582Z,10.40
2023-05-10T01:56:33.062Z,10.40
2023-05-10T01:59:04.480Z,10.40
2023-05-10T02:01:32.143Z,10.40
2023-05-10T02:04:00.313Z,10.40
2023-05-10T02:06:28.349Z,10.40
2023-05-10T02:08:56.269Z,10.40
2023-05-10T02:11:25.973Z,10.40
2023-05-10T02:13:55.095Z,10.50
2023-05-10T02:16:31.938Z,10.60
2023-05-10T02:19:03.573Z,10.60
2023-05-10T02:21:32.004Z,10.60
2023-05-10T02:24:00.273Z,10.60
2023-05-10T02:26:30.341Z,10.60
2023-05-10T02:28:59.375Z,10.60
2023-05-10T02:31:27.413Z,10.60
2023-05-10T02:33:55.133Z,10.50
2023-05-10T02:36:23.277Z,10.50
2023-05-10T02:38:52.558Z,10.40
2023-05-10T02:41:20.482Z,10.40
2023-05-10T02:43:56.409Z,10.50
2023-05-10T02:46:24.813Z,10.50
2023-05-10T02:48:51.713Z,10.50
2023-05-10T02:51:20.165Z,10.50
2023-05-10T02:53:50.324Z,10.50
2023-05-10T02:56:31.629Z,10.40
2023-05-10T02:58:58.898Z,10.50
2023-05-10T03:01:25.849Z,10.40
2023-05-10T03:03:52.854Z,10.40
2023-05-10T03:06:20.391Z,10.40
2023-05-10T03:08:47.282Z,10.30
2023-05-10T03:11:29.322Z,10.30
2023-05-10T03:14:26.285Z,10.30
2023-05-10T03:17:19.396Z,10.30
2023-05-10T03:19:54.153Z,10.30
2023-05-10T03:22:46.725Z,10.30
2023-05-10T03:25:16.317Z,10.30
2023-05-10T03:27:45.050Z,10.30
2023-05-10T03:30:13.943Z,10.30
2023-05-10T03:32:42.225Z,10.20
2023-05-10T03:35:14.285Z,10.20
2023-05-10T03:37:41.779Z,10.30
2023-05-10T03:40:09.979Z,10.30
2023-05-10T03:42:40.727Z,10.30
2023-05-10T03:45:08.740Z,10.30
2023-05-10T03:47:36.106Z,10.30
2023-05-10T03:50:03.481Z,10.30
2023-05-10T03:52:30.627Z,10.30
2023-05-10T03:54:57.521Z,10.30
2023-05-10T03:57:25.288Z,10.30
2023-05-10T03:59:52.265Z,10.20
2023-05-10T04:02:19.032Z,10.20
2023-05-10T04:04:46.133Z,10.20
2023-05-10T04:07:13.055Z,10.20
2023-05-10T04:09:40.631Z,10.20
2023-05-10T04:12:09.448Z,10.20
2023-05-10T04:14:38.249Z,10.20
2023-05-10T04:17:05.404Z,10.20
2023-05-10T04:19:32.535Z,10.20
2023-05-10T04:22:00.184Z,10.20
2023-05-10T04:24:27.021Z,10.20
2023-05-10T04:26:57.164Z,10.20
2023-05-10T04:29:24.618Z,10.10
2023-05-10T04:31:52.000Z,10.20
2023-05-10T04:34:19.015Z,10.20
2023-05-10T04:36:45.906Z,10.20
2023-05-10T04:39:12.810Z,10.20
2023-05-10T04:41:39.681Z,10.30
2023-05-10T04:44:07.207Z,10.30
2023-05-10T04:46:34.463Z,10.30
2023-05-10T04:49:01.346Z,10.30
2023-05-10T04:51:28.130Z,10.30
2023-05-10T04:54:05.230Z,10.30
2023-05-10T04:56:33.141Z,10.40
2023-05-10T04:59:00.303Z,10.40
2023-05-10T05:01:27.366Z,10.40
2023-05-10T05:03:54.364Z,10.50
2023-05-10T05:06:22.166Z,10.60
2023-05-10T05:08:50.634Z,10.60
2023-05-10T05:11:18.601Z,10.70
2023-05-10T05:13:45.562Z,10.70
2023-05-10T05:16:12.535Z,10.70
2023-05-10T05:18:39.822Z,10.70
2023-05-10T05:21:20.677Z,10.70
2023-05-10T05:23:47.575Z,10.80
2023-05-10T05:26:16.068Z,10.80
2023-05-10T05:28:43.418Z,10.80
2023-05-10T05:31:10.432Z,10.80
2023-05-10T05:33:37.775Z,10.70
2023-05-10T05:36:06.453Z,10.80
2023-05-10T05:38:33.637Z,10.90
2023-05-10T05:41:00.662Z,11.00
2023-05-10T05:43:27.833Z,11.10
2023-05-10T05:45:55.111Z,11.10
2023-05-10T05:48:22.621Z,11.10
2023-05-10T05:50:49.537Z,11.20
2023-05-10T05:53:16.830Z,11.20
2023-05-10T05:55:58.204Z,11.20
2023-05-10T05:58:26.133Z,11.20
2023-05-10T06:00:53.640Z,11.30
2023-05-10T06:03:21.022Z,11.50
2023-05-10T06:05:48.448Z,11.60
2023-05-10T06:08:15.281Z,11.80
2023-05-10T06:10:42.627Z,11.90
2023-05-10T06:13:09.504Z,12.10
2023-05-10T06:15:36.439Z,12.20
2023-05-10T06:18:03.547Z,12.20
2023-05-10T06:20:32.542Z,12.10
2023-05-10T06:22:59.691Z,12.10
2023-05-10T06:25:27.171Z,12.00
2023-05-10T06:27:58.192Z,12.00
2023-05-10T06:30:29.307Z,11.90
2023-05-10T06:32:57.028Z,12.00
2023-05-10T06:35:24.309Z,12.00
2023-05-10T06:37:51.986Z,12.00
2023-05-10T06:40:19.281Z,11.90
2023-05-10T06:42:47.331Z,11.80
2023-05-10T06:45:15.786Z,11.70
2023-05-10T06:47:43.626Z,11.60
2023-05-10T06:50:10.891Z,11.50
2023-05-10T06:52:38.018Z,11.50
2023-05-10T06:55:06.173Z,11.50
2023-05-10T06:57:33.357Z,11.70
2023-05-10T07:00:00.581Z,11.90
2023-05-10T07:02:28.229Z,11.90
2023-05-10T07:04:55.174Z,11.90
2023-05-10T07:07:22.568Z,11.90
2023-05-10T07:09:51.132Z,11.80
2023-05-10T07:12:18.321Z,11.80
2023-05-10T07:14:45.414Z,11.70
2023-05-10T07:17:12.396Z,11.60
2023-05-10T07:19:39.366Z,11.50
2023-05-10T07:22:06.288Z,11.50
2023-05-10T07:24:34.107Z,11.50
2023-05-10T07:27:01.414Z,11.50
2023-05-10T07:29:29.473Z,11.50
2023-05-10T07:31:58.722Z,11.50
2023-05-10T07:34:26.359Z,11.50
2023-05-10T07:36:53.735Z,11.50
2023-05-10T07:39:27.288Z,11.50
2023-05-10T07:41:56.173Z,11.60
2023-05-10T07:44:23.352Z,11.70
2023-05-10T07:46:50.188Z,11.80
2023-05-10T07:49:17.247Z,11.90
2023-05-10T07:51:44.587Z,12.00
2023-05-10T07:54:11.745Z,11.90
2023-05-10T07:56:38.613Z,12.00
2023-05-10T07:59:07.447Z,12.00
2023-05-10T08:01:36.497Z,12.10
2023-05-10T08:04:03.630Z,12.30
2023-05-10T08:06:31.196Z,12.40
2023-05-10T08:08:58.507Z,12.30
2023-05-10T08:11:26.161Z,12.30
2023-05-10T08:13:53.252Z,12.50
2023-05-10T08:16:20.584Z,12.50
2023-05-10T08:18:48.270Z,12.50
2023-05-10T08:21:16.515Z,12.60
2023-05-10T08:23:45.093Z,12.80
2023-05-10T08:26:12.405Z,12.50
2023-05-10T08:28:39.474Z,12.30
2023-05-10T08:31:16.164Z,12.40
2023-05-10T08:33:44.782Z,12.30
2023-05-10T08:36:12.060Z,12.40
2023-05-10T08:38:39.056Z,12.50
2023-05-10T08:41:07.085Z,12.70
2023-05-10T08:43:35.092Z,12.60
2023-05-10T08:46:04.075Z,12.70
2023-05-10T08:48:32.206Z,13.00
2023-05-10T08:51:01.461Z,13.30
2023-05-10T08:53:32.236Z,13.50
2023-05-10T08:55:59.168Z,13.70
2023-05-10T08:58:26.657Z,13.60
2023-05-10T09:00:58.087Z,13.70
2023-05-10T09:03:25.006Z,13.50
2023-05-10T09:05:52.078Z,13.40
2023-05-10T09:08:19.350Z,13.60
2023-05-10T09:10:48.443Z,14.10
2023-05-10T09:13:16.763Z,14.40
2023-05-10T09:15:46.006Z,15.00
2023-05-10T09:18:13.397Z,15.30
2023-05-10T09:20:40.507Z,15.40
2023-05-10T09:23:07.708Z,15.90
2023-05-10T09:25:34.880Z,16.40
2023-05-10T09:28:01.848Z,16.80
2023-05-10T09:30:30.909Z,16.60
2023-05-10T09:32:59.331Z,16.40
2023-05-10T09:35:30.002Z,16.70
2023-05-10T09:37:59.120Z,17.30
2023-05-10T09:40:27.656Z,17.30
2023-05-10T09:43:12.800Z,18.20
2023-05-10T09:45:41.966Z,18.20
2023-05-10T09:48:09.209Z,18.30
2023-05-10T09:50:36.085Z,18.50
2023-05-10T09:53:04.600Z,18.20
2023-05-10T09:55:45.114Z,18.40
2023-05-10T09:58:12.647Z,18.80
2023-05-10T10:00:49.132Z,19.00
2023-05-10T10:03:21.182Z,18.40
2023-05-10T10:05:49.620Z,18.60
2023-05-10T10:08:18.766Z,17.70
2023-05-10T10:10:47.113Z,17.70
2023-05-10T10:13:14.836Z,17.50
2023-05-10T10:15:42.997Z,17.30
2023-05-10T10:18:15.089Z,16.90
2023-05-10T10:20:42.885Z,16.70
2023-05-10T10:23:10.626Z,16.90
2023-05-10T10:25:38.781Z,16.90
2023-05-10T10:28:26.203Z,16.80
2023-05-10T10:30:57.426Z,16.80
2023-05-10T10:33:48.324Z,16.40
2023-05-10T10:36:16.953Z,16.10
2023-05-10T10:38:50.364Z,15.80
2023-05-10T10:41:43.981Z,14.30
2023-05-10T10:44:28.672Z,12.80
2023-05-10T10:47:10.220Z,12.10
2023-05-10T10:49:44.978Z,11.70
2023-05-10T10:52:34.020Z,11.40
2023-05-10T10:55:04.019Z,11.30
2023-05-10T10:57:52.965Z,11.30
2023-05-10T11:00:29.189Z,11.50
2023-05-10T11:03:11.807Z,11.50
2023-05-10T11:05:38.695Z,11.90
2023-05-10T11:08:14.967Z,12.00
2023-05-10T11:10:54.548Z,12.10
2023-05-10T11:13:44.346Z,12.20
2023-05-10T11:16:12.895Z,12.30
2023-05-10T11:18:39.958Z,12.50
2023-05-10T11:21:13.086Z,12.50
2023-05-10T11:23:50.044Z,12.50
2023-05-10T11:26:17.044Z,12.60
2023-05-10T11:28:48.859Z,12.70
2023-05-10T11:31:17.175Z,12.80
2023-05-10T11:33:54.657Z,12.90
2023-05-10T11:36:27.163Z,13.00
2023-05-10T11:38:55.256Z,13.20
2023-05-10T11:41:23.603Z,13.10
2023-05-10T11:43:52.170Z,13.60
2023-05-10T11:46:21.911Z,14.20
2023-05-10T11:48:52.182Z,15.00
2023-05-10T11:51:23.427Z,15.80
2023-05-10T11:53:52.320Z,16.00
2023-05-10T11:56:19.318Z,16.20
2023-05-10T11:58:48.051Z,16.80
2023-05-10T12:01:15.352Z,17.30
2023-05-10T12:03:42.591Z,17.40
2023-05-10T12:06:09.672Z,17.60
2023-05-10T12:08:36.535Z,17.70
2023-05-10T12:11:11.554Z,17.00
2023-05-10T12:13:42.819Z,17.00
2023-05-10T12:16:21.748Z,17.60
2023-05-10T12:18:58.349Z,18.10
2023-05-10T12:21:26.004Z,17.50
2023-05-10T12:23:54.945Z,17.70
2023-05-10T12:26:27.381Z,18.30
2023-05-10T12:29:14.151Z,17.70
2023-05-10T12:31:58.588Z,17.90
2023-05-10T12:34:32.395Z,18.00
2023-05-10T12:36:59.485Z,17.90
2023-05-10T12:39:26.711Z,17.40
2023-05-10T12:41:53.670Z,16.90
2023-05-10T12:44:20.549Z,16.50
2023-05-10T12:46:47.328Z,16.30
2023-05-10T12:49:14.279Z,16.30
2023-05-10T12:51:41.118Z,16.50
2023-05-10T12:54:08.086Z,16.60
2023-05-10T12:56:35.084Z,16.70
2023-05-10T12:59:02.089Z,16.80
2023-05-10T13:01:29.589Z,17.20
2023-05-10T13:03:56.881Z,16.70
2023-05-10T13:06:23.728Z,16.70
2023-05-10T13:08:50.956Z,17.40
2023-05-10T13:11:18.333Z,17.80
2023-05-10T13:13:45.704Z,17.50
2023-05-10T13:16:12.471Z,17.90
2023-05-10T13:18:39.284Z,17.30
2023-05-10T13:21:06.758Z,16.40
2023-05-10T13:23:33.592Z,15.60
2023-05-10T13:26:00.693Z,14.90
2023-05-10T13:28:27.553Z,14.30
2023-05-10T13:30:54.408Z,14.00
2023-05-10T13:33:21.334Z,13.90
2023-05-10T13:35:48.268Z,13.70
2023-05-10T13:38:15.287Z,13.50
2023-05-10T13:40:42.218Z,13.60
2023-05-10T13:43:09.146Z,13.80
2023-05-10T13:45:35.972Z,14.10
2023-05-10T13:48:03.344Z,14.60
2023-05-10T13:50:31.127Z,14.90
2023-05-10T13:52:57.983Z,15.30
2023-05-10T13:55:24.778Z,15.30
2023-05-10T13:57:52.072Z,15.60
2023-05-10T14:00:19.124Z,15.50
2023-05-10T14:02:46.027Z,15.40
2023-05-10T14:05:14.011Z,15.40
2023-05-10T14:07:40.904Z,15.00
2023-05-10T14:10:08.262Z,14.80
2023-05-10T14:12:35.115Z,14.50
2023-05-10T14:15:02.339Z,14.60
2023-05-10T14:17:29.560Z,14.30
2023-05-10T14:19:56.433Z,13.60
2023-05-10T14:22:23.635Z,13.30
2023-05-10T14:24:51.113Z,13.30
2023-05-10T14:27:19.975Z,13.10
2023-05-10T14:29:46.794Z,12.80
2023-05-10T14:32:13.680Z,12.90
2023-05-10T14:34:40.753Z,13.10
2023-05-10T14:37:07.620Z,13.20
2023-05-10T14:39:34.451Z,13.50
2023-05-10T14:42:01.365Z,13.70
2023-05-10T14:44:28.661Z,14.10
2023-05-10T14:46:56.249Z,14.40
2023-05-10T14:49:27.678Z,14.60
2023-05-10T14:51:54.619Z,14.60
2023-05-10T14:54:21.618Z,14.80
2023-05-10T14:56:50.831Z,14.80
2023-05-10T14:59:17.810Z,15.00
2023-05-10T15:01:45.300Z,14.70
2023-05-10T15:04:14.133Z,15.20
2023-05-10T15:06:41.952Z,15.30
2023-05-10T15:09:08.900Z,15.20
2023-05-10T15:11:35.780Z,15.40
2023-05-10T15:14:02.957Z,15.50
2023-05-10T15:16:29.826Z,15.50
2023-05-10T15:18:56.794Z,15.50
2023-05-10T15:21:23.647Z,15.60
2023-05-10T15:23:50.489Z,15.50
2023-05-10T15:26:17.311Z,15.20
2023-05-10T15:28:44.555Z,15.40
2023-05-10T15:31:11.596Z,15.30
2023-05-10T15:33:38.888Z,15.40
2023-05-10T15:36:06.153Z,15.40
2023-05-10T15:38:32.973Z,14.90
2023-05-10T15:40:59.796Z,14.80
2023-05-10T15:43:26.657Z,14.80
2023-05-10T15:45:53.476Z,15.20
2023-05-10T15:48:20.422Z,15.40
2023-05-10T15:50:47.147Z,15.60
2023-05-10T15:53:14.033Z,15.70
2023-05-10T15:55:41.084Z,15.60
2023-05-10T15:58:08.122Z,15.40
2023-05-10T16:00:34.903Z,15.30
2023-05-10T16:03:01.888Z,15.20
2023-05-10T16:05:32.620Z,15.20
2023-05-10T16:08:00.399Z,15.20
2023-05-10T16:10:27.896Z,15.20
2023-05-10T16:12:55.117Z,15.00
2023-05-10T16:15:22.670Z,15.10
2023-05-10T16:17:49.845Z,15.10
2023-05-10T16:20:16.822Z,14.90
2023-05-10T16:22:44.499Z,14.70
2023-05-10T16:25:13.470Z,14.70
2023-05-10T16:27:41.026Z,14.60
2023-05-10T16:30:08.756Z,14.50
2023-05-10T16:32:35.537Z,14.40
2023-05-10T16:35:02.380Z,14.30
2023-05-10T16:37:29.237Z,14.20
2023-05-10T16:39:56.152Z,14.30
2023-05-10T16:42:24.097Z,14.20
2023-05-10T16:44:51.004Z,14.10
2023-05-10T16:47:18.340Z,14.00
2023-05-10T16:49:45.587Z,14.00
2023-05-10T16:52:12.579Z,13.70
2023-05-10T16:54:39.428Z,13.70
2023-05-10T16:57:06.349Z,13.50
2023-05-10T16:59:34.002Z,13.50
2023-05-10T17:02:00.867Z,13.50
2023-05-10T17:04:28.649Z,13.40
2023-05-10T17:06:55.395Z,13.40
2023-05-10T17:09:22.341Z,13.40
2023-05-10T17:11:49.093Z,13.10
2023-05-10T17:14:16.001Z,12.60
2023-05-10T17:16:42.822Z,12.30
2023-05-10T17:19:09.763Z,12.10
2023-05-10T17:21:36.710Z,12.20
2023-05-10T17:24:03.619Z,12.30
2023-05-10T17:26:30.651Z,12.40
2023-05-10T17:28:58.217Z,12.30
2023-05-10T17:31:25.082Z,12.30
2023-05-10T17:33:52.027Z,12.10
2023-05-10T17:36:19.277Z,12.00
2023-05-10T17:38:46.177Z,11.90
2023-05-10T17:41:14.224Z,11.80
2023-05-10T17:43:41.142Z,11.70
2023-05-10T17:46:08.153Z,11.60
2023-05-10T17:48:37.006Z,11.50
2023-05-10T17:51:04.587Z,11.50
2023-05-10T17:53:31.723Z,11.40
2023-05-10T17:56:01.132Z,11.30
2023-05-10T17:58:28.675Z,11.30
2023-05-10T18:00:57.622Z,11.20
2023-05-10T18:03:24.716Z,11.10
2023-05-10T18:05:51.665Z,11.10
2023-05-10T18:08:22.680Z,11.00
2023-05-10T18:10:49.851Z,11.00
2023-05-10T18:13:16.918Z,10.90
2023-05-10T18:15:43.977Z,10.80
2023-05-10T18:18:11.468Z,10.80
2023-05-10T18:20:38.577Z,10.60
2023-05-10T18:23:06.402Z,10.60
2023-05-10T18:25:33.528Z,10.70
2023-05-10T18:28:00.490Z,10.70
2023-05-10T18:30:27.778Z,10.80
2023-05-10T18:32:55.250Z,10.80
2023-05-10T18:35:22.280Z,10.70
2023-05-10T18:37:49.316Z,10.70
2023-05-10T18:40:17.548Z,10.70
2023-05-10T18:42:46.613Z,10.80
2023-05-10T18:45:13.900Z,10.80
2023-05-10T18:47:40.933Z,10.70
2023-05-10T18:50:08.571Z,10.70
2023-05-10T18:52:36.881Z,10.60
2023-05-10T18:55:04.104Z,10.60
2023-05-10T18:57:30.928Z,10.50
2023-05-10T18:59:57.955Z,10.30
2023-05-10T19:02:26.717Z,10.20
2023-05-10T19:04:53.871Z,10.20
2023-05-10T19:07:20.916Z,10.20
2023-05-10T19:09:47.778Z,10.10
2023-05-10T19:12:14.962Z,10.10
2023-05-10T19:14:41.763Z,10.10
2023-05-10T19:17:09.141Z,10.10
2023-05-10T19:19:37.187Z,10.10
2023-05-10T19:22:04.083Z,10.10
2023-05-10T19:24:31.080Z,10.10
2023-05-10T19:26:57.994Z,10.00
2023-05-10T19:29:25.104Z,10.00
2023-05-10T19:31:52.531Z,10.00
2023-05-10T19:34:20.982Z,10.00
2023-05-10T19:36:47.751Z,9.90
2023-05-10T19:39:16.981Z,9.90
2023-05-10T19:41:44.230Z,9.80
2023-05-10T19:44:11.230Z,9.80
2023-05-10T19:46:38.096Z,9.80
2023-05-10T19:49:05.029Z,9.80
2023-05-10T19:51:31.850Z,9.70
2023-05-10T19:53:58.605Z,9.70
2023-05-10T19:56:27.219Z,9.70
2023-05-10T19:58:53.964Z,9.80
2023-05-10T20:01:20.963Z,9.90
2023-05-10T20:03:48.196Z,9.90
2023-05-10T20:06:15.043Z,9.80
2023-05-10T20:08:41.940Z,9.80
2023-05-10T20:11:09.855Z,9.80
2023-05-10T20:13:36.735Z,9.70
2023-05-10T20:16:05.063Z,9.80
2023-05-10T20:18:32.233Z,9.70
2023-05-10T20:21:00.582Z,9.60
2023-05-10T20:23:30.177Z,9.50
2023-05-10T20:25:57.229Z,9.50
2023-05-10T20:28:26.345Z,9.40
2023-05-10T20:30:54.306Z,9.40
2023-05-10T20:33:25.119Z,9.30
2023-05-10T20:35:52.510Z,9.30
2023-05-10T20:38:19.756Z,9.20
2023-05-10T20:40:47.500Z,9.20
2023-05-10T20:43:14.549Z,9.10
2023-05-10T20:45:41.591Z,9.10
2023-05-10T20:48:09.634Z,9.00
2023-05-10T20:50:36.476Z,9.00
2023-05-10T20:53:03.370Z,9.00
2023-05-10T20:55:30.205Z,8.90
2023-05-10T20:57:57.218Z,8.90
2023-05-10T21:00:24.096Z,8.80
2023-05-10T21:02:51.131Z,8.80
2023-05-10T21:05:18.681Z,8.80
2023-05-10T21:07:45.955Z,8.80
2023-05-10T21:10:13.035Z,8.80
2023-05-10T21:12:39.894Z,8.70
2023-05-10T21:15:07.605Z,8.70
2023-05-10T21:17:34.446Z,8.70
2023-05-10T21:20:01.270Z,8.70
2023-05-10T21:22:28.178Z,8.60
2023-05-10T21:24:55.198Z,8.50
2023-05-10T21:27:22.058Z,8.50
2023-05-10T21:29:48.980Z,8.50
2023-05-10T21:32:15.827Z,8.50
2023-05-10T21:34:42.720Z,8.50
2023-05-10T21:37:09.551Z,8.50
2023-05-10T21:39:36.456Z,8.50
2023-05-10T21:42:03.806Z,8.50
2023-05-10T21:44:32.220Z,8.60
2023-05-10T21:46:59.047Z,8.60
2023-05-10T21:49:26.318Z,8.60
2023-05-10T21:51:53.362Z,8.60
2023-05-10T21:54:20.291Z,8.50
2023-05-10T21:56:47.219Z,8.50
2023-05-10T21:59:14.378Z,8.40
2023-05-10T22:01:41.915Z,8.30
2023-05-10T22:04:08.835Z,8.30
2023-05-10T22:06:36.163Z,8.30
2023-05-10T22:09:04.440Z,8.30
2023-05-10T22:11:31.525Z,8.30
2023-05-10T22:13:58.900Z,8.30
2023-05-10T22:16:25.905Z,8.40
2023-05-10T22:18:54.414Z,8.30
2023-05-10T22:21:21.618Z,8.30
2023-05-10T22:23:48.405Z,8.30
2023-05-10T22:26:15.596Z,8.20
2023-05-10T22:28:42.435Z,8.20
2023-05-10T22:31:11.396Z,8.20
2023-05-10T22:33:38.808Z,8.20
2023-05-10T22:36:06.725Z,8.20
2023-05-10T22:38:33.607Z,8.10
2023-05-10T22:41:00.756Z,8.00
2023-05-10T22:43:27.521Z,8.00
2023-05-10T22:45:54.485Z,8.00
2023-05-10T22:48:22.171Z,8.00
2023-05-10T22:50:49.184Z,7.90
2023-05-10T22:53:16.445Z,7.90
2023-05-10T22:55:43.482Z,7.80
2023-05-10T22:58:10.493Z,7.70
2023-05-10T23:00:39.938Z,7.80
2023-05-10T23:03:06.972Z,7.80
2023-05-10T23:05:33.811Z,7.80
2023-05-10T23:08:00.700Z,7.80
2023-05-10T23:10:27.610Z,7.80
2023-05-10T23:12:55.975Z,7.80
2023-05-10T23:15:22.804Z,7.90
2023-05-10T23:17:49.663Z,8.00
2023-05-10T23:20:17.011Z,8.00
2023-05-10T23:22:44.070Z,8.10
2023-05-10T23:25:10.935Z,8.30
2023-05-10T23:27:37.968Z,8.30
2023-05-10T23:30:05.293Z,8.40
2023-05-10T23:32:33.116Z,8.50
2023-05-10T23:35:00.693Z,8.50
2023-05-10T23:37:27.928Z,8.50
2023-05-10T23:39:54.881Z,8.50
2023-05-10T23:42:21.779Z,8.40
2023-05-10T23:44:48.659Z,8.40
2023-05-10T23:47:15.917Z,8.40
2023-05-10T23:49:42.667Z,8.40
2023-05-10T23:52:10.052Z,8.40
2023-05-10T23:54:36.967Z,8.40
2023-05-10T23:57:04.089Z,8.30
2023-05-10T23:59:31.280Z,8.30
